createdAt,value
2022-08-05T00:01:35.562Z,20.78
2022-08-05T00:04:05.179Z,20.75
2022-08-05T00:06:36.376Z,20.74
2022-08-05T00:09:12.802Z,20.73
2022-08-05T00:11:49.622Z,20.71
2022-08-05T00:14:27.594Z,20.70
2022-08-05T00:17:01.913Z,20.69
2022-08-05T00:19:33.698Z,20.68
2022-08-05T00:22:11.339Z,20.68
2022-08-05T00:24:42.356Z,20.66
2022-08-05T00:27:28.542Z,20.63
2022-08-05T00:29:58.805Z,20.60
2022-08-05T00:32:28.557Z,20.60
2022-08-05T00:35:06.399Z,20.59
2022-08-05T00:37:52.580Z,20.59
2022-08-05T00:40:27.149Z,20.58
2022-08-05T00:42:59.709Z,20.57
2022-08-05T00:45:42.848Z,20.57
2022-08-05T00:48:13.272Z,20.56
2022-08-05T00:50:45.817Z,20.54
2022-08-05T00:54:00.867Z,20.53
2022-08-05T00:56:07.916Z,20.50
2022-08-05T00:58:38.018Z,20.47
2022-08-05T01:01:09.061Z,20.44
2022-08-05T01:03:39.352Z,20.40
2022-08-05T01:06:14.038Z,20.37
2022-08-05T01:08:46.374Z,20.34
2022-08-05T01:11:24.131Z,20.31
2022-08-05T01:14:15.366Z,20.26
2022-08-05T01:16:54.279Z,20.21
2022-08-05T01:19:30.211Z,20.18
2022-08-05T01:22:34.152Z,20.17
2022-08-05T01:25:08.232Z,20.16
2022-08-05T01:27:50.608Z,20.17
2022-08-05T01:30:34.247Z,20.18
2022-08-05T01:33:09.589Z,20.20
2022-08-05T01:35:50.988Z,20.20
2022-08-05T01:38:26.811Z,20.18
2022-08-05T01:41:01.790Z,20.12
2022-08-05T01:43:32.674Z,20.07
2022-08-05T01:46:06.910Z,20.01
2022-08-05T01:48:49.388Z,19.93
2022-08-05T01:51:19.182Z,19.85
2022-08-05T01:53:58.126Z,19.80
2022-08-05T01:58:09.947Z,19.76
2022-08-05T01:59:22.198Z,19.72
2022-08-05T02:01:54.762Z,19.66
2022-08-05T02:04:25.950Z,19.57
2022-08-05T02:06:54.025Z,19.50
2022-08-05T02:09:22.142Z,19.44
2022-08-05T02:12:11.028Z,19.38
2022-08-05T02:14:47.993Z,19.33
2022-08-05T02:18:27.624Z,19.29
2022-08-05T02:20:22.197Z,19.22
2022-08-05T02:23:00.047Z,19.15
2022-08-05T02:25:49.355Z,19.08
2022-08-05T02:28:29.258Z,19.03
2022-08-05T02:31:26.519Z,18.99
2022-08-05T02:34:02.779Z,18.95
2022-08-05T02:36:32.714Z,18.91
2022-08-05T02:39:03.296Z,18.89
2022-08-05T02:41:43.221Z,18.85
2022-08-05T02:44:24.464Z,18.78
2022-08-05T02:47:00.269Z,18.71
2022-08-05T02:49:36.699Z,18.67
2022-08-05T02:52:09.377Z,18.68
2022-08-05T02:54:41.179Z,18.69
2022-08-05T02:58:10.337Z,18.70
2022-08-05T03:00:04.900Z,18.69
2022-08-05T03:02:40.594Z,18.68
2022-08-05T03:05:12.510Z,18.66
2022-08-05T03:08:06.705Z,18.64
2022-08-05T03:10:30.960Z,18.57
2022-08-05T03:15:28.485Z,18.48
2022-08-05T03:17:57.798Z,18.45
2022-08-05T03:20:28.447Z,18.42
2022-08-05T03:22:57.622Z,18.40
2022-08-05T03:25:32.989Z,18.38
2022-08-05T03:29:03.014Z,18.37
2022-08-05T03:31:56.520Z,18.39
2022-08-05T03:34:27.340Z,18.42
2022-08-05T03:36:57.250Z,18.42
2022-08-05T03:39:27.219Z,18.41
2022-08-05T03:41:56.972Z,18.39
2022-08-05T03:44:26.090Z,18.38
2022-08-05T03:46:57.217Z,18.36
2022-08-05T03:49:30.977Z,18.33
2022-08-05T03:52:48.515Z,18.28
2022-08-05T03:55:52.916Z,18.23
2022-08-05T03:58:03.770Z,18.19
2022-08-05T04:00:33.333Z,18.15
2022-08-05T04:03:03.558Z,18.14
2022-08-05T04:05:36.360Z,18.14
2022-08-05T04:08:14.504Z,18.15
2022-08-05T04:10:59.003Z,18.14
2022-08-05T04:13:51.142Z,18.14
2022-08-05T04:16:24.959Z,18.14
2022-08-05T04:18:54.898Z,18.13
2022-08-05T04:22:08.235Z,18.15
2022-08-05T04:24:18.839Z,18.18
2022-08-05T04:26:47.705Z,18.22
2022-08-05T04:29:15.602Z,18.23
2022-08-05T04:31:43.569Z,18.31
2022-08-05T04:34:31.247Z,18.37
2022-08-05T04:36:59.628Z,18.46
2022-08-05T04:39:28.831Z,18.56
2022-08-05T04:41:56.724Z,18.66
2022-08-05T04:44:29.904Z,18.74
2022-08-05T04:46:59.578Z,18.81
2022-08-05T04:49:38.767Z,18.89
2022-08-05T04:52:16.212Z,18.97
2022-08-05T04:54:44.274Z,19.05
2022-08-05T04:57:12.188Z,19.12
2022-08-05T04:59:40.734Z,19.21
2022-08-05T05:02:41.518Z,19.29
2022-08-05T05:05:03.105Z,19.39
2022-08-05T05:07:35.347Z,19.48
2022-08-05T05:10:06.661Z,19.58
2022-08-05T05:12:36.646Z,19.67
2022-08-05T05:15:06.024Z,19.76
2022-08-05T05:17:55.597Z,19.86
2022-08-05T05:20:28.374Z,19.95
2022-08-05T05:23:24.478Z,20.04
2022-08-05T05:25:52.609Z,20.17
2022-08-05T05:28:20.651Z,20.28
2022-08-05T05:30:49.581Z,20.37
2022-08-05T05:33:18.035Z,20.45
2022-08-05T05:35:51.843Z,20.53
2022-08-05T05:38:22.641Z,20.61
2022-08-05T05:40:58.006Z,20.70
2022-08-05T05:43:54.181Z,20.78
2022-08-05T05:46:15.915Z,20.89
2022-08-05T05:48:48.865Z,20.97
2022-08-05T05:51:22.343Z,21.03
2022-08-05T05:53:57.482Z,21.10
2022-08-05T05:56:32.487Z,21.18
2022-08-05T05:59:07.426Z,21.27
2022-08-05T06:01:39.401Z,21.40
2022-08-05T06:04:11.821Z,21.52
2022-08-05T06:06:47.290Z,21.63
2022-08-05T06:09:25.646Z,21.71
2022-08-05T06:12:01.160Z,21.80
2022-08-05T06:14:31.673Z,21.90
2022-08-05T06:17:02.091Z,22.00
2022-08-05T06:19:56.577Z,22.12
2022-08-05T06:22:30.557Z,22.22
2022-08-05T06:25:25.165Z,22.33
2022-08-05T06:28:10.999Z,22.45
2022-08-05T06:30:41.410Z,22.59
2022-08-05T06:33:10.652Z,22.70
2022-08-05T06:36:07.767Z,22.80
2022-08-05T06:38:36.745Z,22.89
2022-08-05T06:41:08.247Z,22.99
2022-08-05T06:43:58.727Z,23.03
2022-08-05T06:46:30.355Z,23.08
2022-08-05T06:49:01.217Z,23.14
2022-08-05T06:51:31.037Z,23.23
2022-08-05T06:54:01.968Z,23.32
2022-08-05T06:56:34.680Z,23.45
2022-08-05T06:59:09.490Z,23.56
2022-08-05T07:01:40.748Z,23.68
2022-08-05T07:04:10.927Z,23.78
2022-08-05T07:06:42.239Z,23.86
2022-08-05T07:09:10.304Z,23.93
2022-08-05T07:11:39.991Z,23.99
2022-08-05T07:14:29.513Z,24.06
2022-08-05T07:17:58.405Z,24.15
2022-08-05T07:20:31.226Z,24.25
2022-08-05T07:22:39.509Z,24.35
2022-08-05T07:25:54.728Z,24.44
2022-08-05T07:28:04.187Z,24.56
2022-08-05T07:30:38.693Z,24.68
2022-08-05T07:33:15.571Z,24.79
2022-08-05T07:36:02.310Z,24.93
2022-08-05T07:38:43.645Z,25.11
2022-08-05T07:42:08.573Z,25.30
2022-08-05T07:44:18.594Z,25.47
2022-08-05T07:46:49.501Z,25.55
2022-08-05T07:49:19.975Z,25.65
2022-08-05T07:51:53.423Z,25.80
2022-08-05T07:54:31.485Z,25.92
2022-08-05T07:57:16.709Z,26.04
2022-08-05T07:59:51.656Z,26.12
2022-08-05T08:02:26.757Z,26.20
2022-08-05T08:05:02.032Z,26.28
2022-08-05T08:07:39.677Z,26.37
2022-08-05T08:10:20.434Z,26.48
2022-08-05T08:12:50.013Z,26.61
2022-08-05T08:15:18.236Z,26.66
2022-08-05T08:18:09.911Z,26.72
2022-08-05T08:21:02.288Z,26.85
2022-08-05T08:24:02.126Z,26.99
2022-08-05T08:26:27.024Z,27.13
2022-08-05T08:29:21.616Z,27.24
2022-08-05T08:31:49.260Z,27.37
2022-08-05T08:34:30.148Z,27.45
2022-08-05T08:37:04.914Z,27.55
2022-08-05T08:39:37.110Z,27.66
2022-08-05T08:42:33.815Z,27.79
2022-08-05T08:45:18.096Z,27.94
2022-08-05T08:48:11.789Z,28.03
2022-08-05T08:51:22.806Z,28.19
2022-08-05T08:53:37.195Z,28.35
2022-08-05T08:57:06.025Z,28.48
2022-08-05T09:01:00.751Z,28.63
2022-08-05T09:05:16.714Z,28.71
2022-08-05T09:08:58.692Z,28.66
2022-08-05T09:12:51.122Z,28.65
2022-08-05T09:16:42.194Z,28.94
2022-08-05T09:20:38.382Z,29.20
2022-08-05T09:24:27.408Z,29.33
2022-08-05T09:28:21.027Z,29.50
2022-08-05T09:32:42.252Z,29.68
2022-08-05T09:36:19.922Z,29.72
2022-08-05T09:39:16.788Z,29.73
2022-08-05T09:41:58.691Z,29.88
2022-08-05T09:44:35.818Z,30.04
2022-08-05T09:47:15.435Z,30.18
2022-08-05T09:50:00.695Z,30.41
2022-08-05T09:52:35.847Z,30.59
2022-08-05T09:55:57.988Z,30.68
2022-08-05T09:57:59.844Z,30.81
2022-08-05T10:00:30.470Z,30.82
2022-08-05T10:02:59.160Z,30.86
2022-08-05T10:05:32.746Z,30.89
2022-08-05T10:08:35.823Z,30.96
2022-08-05T10:10:54.443Z,30.83
2022-08-05T10:13:31.615Z,30.93
2022-08-05T10:16:29.171Z,31.00
2022-08-05T10:18:58.383Z,31.13
2022-08-05T10:21:27.647Z,31.30
2022-08-05T10:24:07.551Z,31.49
2022-08-05T10:26:49.160Z,31.58
2022-08-05T10:29:24.058Z,31.64
2022-08-05T10:32:53.604Z,31.79
2022-08-05T10:35:00.881Z,31.90
2022-08-05T10:37:40.394Z,32.06
2022-08-05T10:40:28.546Z,32.30
2022-08-05T10:43:04.943Z,32.50
2022-08-05T10:45:40.291Z,32.66
2022-08-05T10:48:35.279Z,32.78
2022-08-05T10:51:21.975Z,32.94
2022-08-05T10:54:22.992Z,33.03
2022-08-05T10:56:58.544Z,33.03
2022-08-05T11:00:04.283Z,32.92
2022-08-05T11:02:37.490Z,33.00
2022-08-05T11:05:10.607Z,33.09
2022-08-05T11:08:03.201Z,33.03
2022-08-05T11:10:50.066Z,33.10
2022-08-05T11:13:54.923Z,33.40
2022-08-05T11:16:33.683Z,33.53
2022-08-05T11:20:10.047Z,33.56
2022-08-05T11:22:49.769Z,33.53
2022-08-05T11:26:06.105Z,33.70
2022-08-05T11:28:33.452Z,33.57
2022-08-05T11:31:06.577Z,33.63
2022-08-05T11:33:53.212Z,33.80
2022-08-05T11:36:44.597Z,33.98
2022-08-05T11:39:18.850Z,33.98
2022-08-05T11:42:01.462Z,33.99
2022-08-05T11:44:52.720Z,34.16
2022-08-05T11:47:48.517Z,34.15
2022-08-05T11:50:14.439Z,34.34
2022-08-05T11:52:44.113Z,34.55
2022-08-05T11:55:15.020Z,34.75
2022-08-05T11:58:10.319Z,34.90
2022-08-05T12:00:38.593Z,34.96
2022-08-05T12:03:31.632Z,34.87
2022-08-05T12:06:06.193Z,34.94
2022-08-05T12:08:51.006Z,34.97
2022-08-05T12:11:21.743Z,35.12
2022-08-05T12:14:10.212Z,35.33
2022-08-05T12:16:41.402Z,35.37
2022-08-05T12:20:25.839Z,35.37
2022-08-05T12:22:09.416Z,35.45
2022-08-05T12:24:43.734Z,35.60
2022-08-05T12:27:33.022Z,35.27
2022-08-05T12:30:07.573Z,35.06
2022-08-05T12:32:50.355Z,35.13
2022-08-05T12:35:21.714Z,35.36
2022-08-05T12:37:50.315Z,35.56
2022-08-05T12:40:26.723Z,35.75
2022-08-05T12:42:58.973Z,35.91
2022-08-05T12:45:36.862Z,36.10
2022-08-05T12:48:27.055Z,36.24
2022-08-05T12:52:10.671Z,36.46
2022-08-05T12:54:02.840Z,36.70
2022-08-05T12:56:35.079Z,36.96
2022-08-05T12:59:23.824Z,37.13
2022-08-05T13:02:08.247Z,37.12
2022-08-05T13:04:52.276Z,36.74
2022-08-05T13:07:55.738Z,36.75
2022-08-05T13:10:19.631Z,36.94
2022-08-05T13:12:57.919Z,36.97
2022-08-05T13:15:42.236Z,37.17
2022-08-05T13:18:20.066Z,37.32
2022-08-05T13:20:49.916Z,37.43
2022-08-05T13:23:22.616Z,37.49
2022-08-05T13:25:59.696Z,37.22
2022-08-05T13:28:29.490Z,37.09
2022-08-05T13:31:11.208Z,37.18
2022-08-05T13:34:23.605Z,37.12
2022-08-05T13:36:31.785Z,37.12
2022-08-05T13:40:15.094Z,37.29
2022-08-05T13:44:05.918Z,37.23
2022-08-05T13:47:04.971Z,37.17
2022-08-05T13:49:36.948Z,37.23
2022-08-05T13:52:18.314Z,37.60
2022-08-05T13:54:53.463Z,37.84
2022-08-05T13:57:22.476Z,37.87
2022-08-05T13:59:57.419Z,38.15
2022-08-05T14:02:37.323Z,38.46
2022-08-05T14:05:15.275Z,38.68
2022-08-05T14:08:02.705Z,38.79
2022-08-05T14:10:34.988Z,38.95
2022-08-05T14:13:03.045Z,39.09
2022-08-05T14:16:08.476Z,39.28
2022-08-05T14:18:23.413Z,39.57
2022-08-05T14:20:54.352Z,39.76
2022-08-05T14:23:26.062Z,39.70
2022-08-05T14:25:58.751Z,39.56
2022-08-05T14:28:29.792Z,39.28
2022-08-05T14:31:00.575Z,38.89
2022-08-05T14:33:57.003Z,38.76
2022-08-05T14:36:21.470Z,38.57
2022-08-05T14:38:50.966Z,38.43
2022-08-05T14:41:20.024Z,38.52
2022-08-05T14:43:59.106Z,38.39
2022-08-05T14:46:31.043Z,38.08
2022-08-05T14:49:07.000Z,37.98
2022-08-05T14:51:38.172Z,38.11
2022-08-05T14:54:30.049Z,38.28
2022-08-05T14:56:56.011Z,38.28
2022-08-05T14:59:24.248Z,38.44
2022-08-05T15:01:53.838Z,38.60
2022-08-05T15:04:22.690Z,38.37
2022-08-05T15:06:51.765Z,38.19
2022-08-05T15:09:50.542Z,38.36
2022-08-05T15:12:11.691Z,38.50
2022-08-05T15:14:49.593Z,38.10
2022-08-05T15:17:45.680Z,37.74
2022-08-05T15:20:16.999Z,37.68
2022-08-05T15:22:52.404Z,37.89
2022-08-05T15:25:41.235Z,38.31
2022-08-05T15:28:15.469Z,38.59
2022-08-05T15:30:45.734Z,38.75
2022-08-05T15:34:04.111Z,38.99
2022-08-05T15:36:04.954Z,39.12
2022-08-05T15:38:42.100Z,39.23
2022-08-05T15:41:22.782Z,39.37
2022-08-05T15:43:54.671Z,39.55
2022-08-05T15:46:24.932Z,39.66
2022-08-05T15:49:00.763Z,39.81
2022-08-05T15:52:13.655Z,40.01
2022-08-05T15:54:34.952Z,39.99
2022-08-05T15:57:07.773Z,39.35
2022-08-05T15:59:38.102Z,39.19
2022-08-05T16:02:14.331Z,39.52
2022-08-05T16:04:44.021Z,39.68
2022-08-05T16:07:12.314Z,39.92
2022-08-05T16:09:42.136Z,39.92
2022-08-05T16:12:11.892Z,39.82
2022-08-05T16:14:40.180Z,39.77
2022-08-05T16:17:09.503Z,39.89
2022-08-05T16:20:03.671Z,40.04
2022-08-05T16:22:34.095Z,40.18
2022-08-05T16:25:08.201Z,40.16
2022-08-05T16:27:47.173Z,40.00
2022-08-05T16:30:28.711Z,39.77
2022-08-05T16:32:58.272Z,39.51
2022-08-05T16:35:28.625Z,39.45
2022-08-05T16:38:15.095Z,39.53
2022-08-05T16:40:51.761Z,39.32
2022-08-05T16:43:25.691Z,39.43
2022-08-05T16:46:07.794Z,39.57
2022-08-05T16:48:41.501Z,39.49
2022-08-05T16:51:10.914Z,39.41
2022-08-05T16:54:05.991Z,39.21
2022-08-05T16:56:31.029Z,39.15
2022-08-05T16:59:00.972Z,39.02
2022-08-05T17:01:54.240Z,38.87
2022-08-05T17:04:27.369Z,38.76
2022-08-05T17:07:03.199Z,38.51
2022-08-05T17:09:57.367Z,38.41
2022-08-05T17:12:50.419Z,38.29
2022-08-05T17:15:15.490Z,38.16
2022-08-05T17:17:55.042Z,37.95
2022-08-05T17:20:23.594Z,37.95
2022-08-05T17:22:55.229Z,37.89
2022-08-05T17:25:39.377Z,37.83
2022-08-05T17:28:09.262Z,37.66
2022-08-05T17:30:50.232Z,37.47
2022-08-05T17:33:19.973Z,37.35
2022-08-05T17:36:08.918Z,37.15
2022-08-05T17:38:35.979Z,36.75
2022-08-05T17:41:03.796Z,36.22
2022-08-05T17:43:50.571Z,35.62
2022-08-05T17:46:20.438Z,34.88
2022-08-05T17:48:48.942Z,33.97
2022-08-05T17:51:21.434Z,33.12
2022-08-05T17:53:54.534Z,32.34
2022-08-05T17:56:23.012Z,31.63
2022-08-05T17:58:56.322Z,30.98
2022-08-05T18:01:24.247Z,30.43
2022-08-05T18:04:04.453Z,29.99
2022-08-05T18:06:33.589Z,29.50
2022-08-05T18:09:03.390Z,28.99
2022-08-05T18:11:33.151Z,28.51
2022-08-05T18:14:03.637Z,28.04
2022-08-05T18:16:32.865Z,27.60
2022-08-05T18:19:00.935Z,27.27
2022-08-05T18:22:09.137Z,26.93
2022-08-05T18:24:16.601Z,26.54
2022-08-05T18:26:44.835Z,26.23
2022-08-05T18:29:16.785Z,25.93
2022-08-05T18:31:45.007Z,25.67
2022-08-05T18:34:12.928Z,25.44
2022-08-05T18:36:43.654Z,25.20
2022-08-05T18:39:22.601Z,24.98
2022-08-05T18:42:04.756Z,24.77
2022-08-05T18:44:35.562Z,24.62
2022-08-05T18:47:17.355Z,24.52
2022-08-05T18:50:03.912Z,24.41
2022-08-05T18:52:51.451Z,24.30
2022-08-05T18:55:21.474Z,24.21
2022-08-05T18:57:54.159Z,24.11
2022-08-05T19:00:31.475Z,24.03
2022-08-05T19:03:03.697Z,23.93
2022-08-05T19:06:12.711Z,23.85
2022-08-05T19:08:22.455Z,23.77
2022-08-05T19:10:59.766Z,23.65
2022-08-05T19:14:37.919Z,23.54
2022-08-05T19:18:10.297Z,23.41
2022-08-05T19:21:01.652Z,23.27
2022-08-05T19:24:07.090Z,23.26
2022-08-05T19:26:22.068Z,23.37
2022-08-05T19:28:49.890Z,23.46
2022-08-05T19:31:19.519Z,23.46
2022-08-05T19:33:56.017Z,23.40
2022-08-05T19:36:25.484Z,23.32
2022-08-05T19:38:54.414Z,23.24
2022-08-05T19:41:34.774Z,23.20
2022-08-05T19:44:13.693Z,23.12
2022-08-05T19:46:43.735Z,23.10
2022-08-05T19:49:12.580Z,23.07
2022-08-05T19:52:04.459Z,23.03
2022-08-05T19:54:34.932Z,22.96
2022-08-05T19:57:06.889Z,22.96
2022-08-05T19:59:55.836Z,22.95
2022-08-05T20:02:27.992Z,22.94
2022-08-05T20:04:58.739Z,22.95
2022-08-05T20:07:45.747Z,22.95
2022-08-05T20:10:16.705Z,22.90
2022-08-05T20:12:45.934Z,22.85
2022-08-05T20:15:48.735Z,22.81
2022-08-05T20:18:10.819Z,22.77
2022-08-05T20:20:55.797Z,22.80
2022-08-05T20:23:40.240Z,22.83
2022-08-05T20:26:15.901Z,22.83
2022-08-05T20:28:45.665Z,22.84
2022-08-05T20:31:13.481Z,22.89
2022-08-05T20:33:45.364Z,22.94
2022-08-05T20:36:16.286Z,22.96
2022-08-05T20:38:54.663Z,22.96
2022-08-05T20:41:44.334Z,22.96
2022-08-05T20:44:18.789Z,22.95
2022-08-05T20:46:57.994Z,22.94
2022-08-05T20:49:26.277Z,22.95
2022-08-05T20:51:54.944Z,22.93
2022-08-05T20:54:24.717Z,22.94
2022-08-05T20:56:53.116Z,22.96
2022-08-05T20:59:27.017Z,22.97
2022-08-05T21:02:09.154Z,22.96
2022-08-05T21:04:38.499Z,22.95
2022-08-05T21:07:06.359Z,22.92
2022-08-05T21:09:37.215Z,22.92
2022-08-05T21:12:19.976Z,22.89
2022-08-05T21:14:47.828Z,22.89
2022-08-05T21:17:16.069Z,22.88
2022-08-05T21:19:48.045Z,22.88
2022-08-05T21:22:23.248Z,22.87
2022-08-05T21:24:52.738Z,22.85
2022-08-05T21:27:24.984Z,22.83
2022-08-05T21:29:56.244Z,22.82
2022-08-05T21:32:27.189Z,22.79
2022-08-05T21:35:17.728Z,22.77
2022-08-05T21:37:53.042Z,22.74
2022-08-05T21:40:24.765Z,22.69
2022-08-05T21:42:53.506Z,22.64
2022-08-05T21:45:25.166Z,22.61
2022-08-05T21:48:10.104Z,22.55
2022-08-05T21:50:42.479Z,22.48
2022-08-05T21:53:27.220Z,22.41
2022-08-05T21:56:06.039Z,22.37
2022-08-05T21:58:42.348Z,22.32
2022-08-05T22:01:23.901Z,22.29
2022-08-05T22:03:53.620Z,22.30
2022-08-05T22:06:39.480Z,22.30
2022-08-05T22:09:13.722Z,22.26
2022-08-05T22:11:46.698Z,22.18
2022-08-05T22:14:37.203Z,22.09
2022-08-05T22:17:06.795Z,21.97
2022-08-05T22:19:57.460Z,21.92
2022-08-05T22:22:28.049Z,21.86
2022-08-05T22:25:21.313Z,21.81
2022-08-05T22:28:08.390Z,21.74
2022-08-05T22:30:44.335Z,21.71
2022-08-05T22:33:56.996Z,21.68
2022-08-05T22:36:14.653Z,21.61
2022-08-05T22:38:48.054Z,21.56
2022-08-05T22:42:04.299Z,21.53
2022-08-05T22:44:06.852Z,21.49
2022-08-05T22:46:40.196Z,21.46
2022-08-05T22:49:23.590Z,21.45
2022-08-05T22:52:05.483Z,21.44
2022-08-05T22:54:36.337Z,21.44
2022-08-05T22:57:07.455Z,21.44
2022-08-05T22:59:46.114Z,21.45
2022-08-05T23:02:18.635Z,21.46
2022-08-05T23:05:01.910Z,21.44
2022-08-05T23:07:44.070Z,21.45
2022-08-05T23:10:14.497Z,21.45
2022-08-05T23:12:43.044Z,21.45
2022-08-05T23:15:11.986Z,21.43
2022-08-05T23:18:02.396Z,21.43
2022-08-05T23:20:27.589Z,21.43
2022-08-05T23:22:58.701Z,21.42
2022-08-05T23:25:54.758Z,21.43
2022-08-05T23:28:15.669Z,21.44
2022-08-05T23:30:53.361Z,21.44
2022-08-05T23:33:26.487Z,21.43
2022-08-05T23:36:12.337Z,21.42
2022-08-05T23:38:42.847Z,21.41
2022-08-05T23:41:11.417Z,21.40
2022-08-05T23:44:03.171Z,21.37
2022-08-05T23:46:27.002Z,21.28
2022-08-05T23:49:00.461Z,21.17
2022-08-05T23:51:53.764Z,21.03
2022-08-05T23:54:25.764Z,20.80
2022-08-05T23:56:55.340Z,20.64
2022-08-05T23:59:27.828Z,20.47
